sensor_id;sensor_type;location;lat;lon;timestamp;pressure;altitude;pressure_sealevel;temperature;humidity
8501;BME280;4288;48.484;10.024;2023-05-10T00:01:14;94999.91;;;18.55;74.76
8501;BME280;4288;48.484;10.024;2023-05-10T00:03:42;95001.13;;;18.54;75.57
8501;BME280;4288;48.484;10.024;2023-05-10T00:06:09;95001.56;;;18.53;75.16
8501;BME280;4288;48.484;10.024;2023-05-10T00:08:38;94998.13;;;18.52;75.25
8501;BME280;4288;48.484;10.024;2023-05-10T00:11:05;94998.84;;;18.53;75.39
8501;BME280;4288;48.484;10.024;2023-05-10T00:13:33;95007.41;;;18.51;75.12
8501;BME280;4288;48.484;10.024;2023-05-10T00:16:00;95001.56;;;18.53;74.75
8501;BME280;4288;48.484;10.024;2023-05-10T00:18:28;94990.00;;;18.52;74.72
8501;BME280;4288;48.484;10.024;2023-05-10T00:20:55;94995.09;;;18.50;74.80
8501;BME280;4288;48.484;10.024;2023-05-10T00:23:22;94996.59;;;18.51;74.51
8501;BME280;4288;48.484;10.024;2023-05-10T00:25:51;94995.09;;;18.50;74.42
8501;BME280;4288;48.484;10.024;2023-05-10T00:28:18;94995.09;;;18.50;74.60
8501;BME280;4288;48.484;10.024;2023-05-10T00:30:46;94988.91;;;18.50;74.45
8501;BME280;4288;48.484;10.024;2023-05-10T00:33:13;94995.53;;;18.49;74.67
8501;BME280;4288;48.484;10.024;2023-05-10T00:35:40;94987.44;;;18.49;74.35
8501;BME280;4288;48.484;10.024;2023-05-10T00:38:08;94988.16;;;18.49;74.35
8501;BME280;4288;48.484;10.024;2023-05-10T00:40:36;94993.56;;;18.49;74.63
8501;BME280;4288;48.484;10.024;2023-05-10T00:43:05;94985.91;;;18.48;74.53
8501;BME280;4288;48.484;10.024;2023-05-10T00:45:33;94990.53;;;18.47;74.04
8501;BME280;4288;48.484;10.024;2023-05-10T00:48:04;94982.44;;;18.47;74.44
8501;BME280;4288;48.484;10.024;2023-05-10T00:50:32;94987.09;;;18.47;74.43
8501;BME280;4288;48.484;10.024;2023-05-10T00:53:00;94987.09;;;18.47;74.37
8501;BME280;4288;48.484;10.024;2023-05-10T00:55:28;94982.88;;;18.46;74.20
8501;BME280;4288;48.484;10.024;2023-05-10T00:57:56;94983.63;;;18.46;74.22
8501;BME280;4288;48.484;10.024;2023-05-10T01:00:25;94981.38;;;18.45;73.99
8501;BME280;4288;48.484;10.024;2023-05-10T01:02:53;94988.28;;;18.46;74.20
8501;BME280;4288;48.484;10.024;2023-05-10T01:05:21;94986.03;;;18.44;74.27
8501;BME280;4288;48.484;10.024;2023-05-10T01:07:48;94986.03;;;18.44;74.39
8501;BME280;4288;48.484;10.024;2023-05-10T01:10:16;94984.94;;;18.42;75.19
8501;BME280;4288;48.484;10.024;2023-05-10T01:12:46;94989.19;;;18.43;75.24
8501;BME280;4288;48.484;10.024;2023-05-10T01:15:15;94976.06;;;18.41;75.08
8501;BME280;4288;48.484;10.024;2023-05-10T01:17:45;94989.59;;;18.41;75.04
8501;BME280;4288;48.484;10.024;2023-05-10T01:20:15;94983.44;;;18.41;74.82
8501;BME280;4288;48.484;10.024;2023-05-10T01:23:04;94988.84;;;18.41;74.98
8501;BME280;4288;48.484;10.024;2023-05-10T01:26:12;94998.16;;;18.40;74.98
8501;BME280;4288;48.484;10.024;2023-05-10T01:29:10;94993.94;;;18.39;74.73
8501;BME280;4288;48.484;10.024;2023-05-10T01:32:12;94992.41;;;18.38;75.01
8501;BME280;4288;48.484;10.024;2023-05-10T01:34:48;94991.25;;;18.39;75.14
8501;BME280;4288;48.484;10.024;2023-05-10T01:37:25;94995.13;;;18.38;74.91
8501;BME280;4288;48.484;10.024;2023-05-10T01:40:02;95001.75;;;18.37;75.00
8501;BME280;4288;48.484;10.024;2023-05-10T01:42:44;94997.06;;;18.37;75.10
8501;BME280;4288;48.484;10.024;2023-05-10T01:45:18;94988.97;;;18.37;75.20
8501;BME280;4288;48.484;10.024;2023-05-10T01:47:53;94994.06;;;18.35;75.15
8501;BME280;4288;48.484;10.024;2023-05-10T01:50:27;95000.22;;;18.36;74.84
8501;BME280;4288;48.484;10.024;2023-05-10T01:52:56;95004.16;;;18.35;75.63
8501;BME280;4288;48.484;10.024;2023-05-10T01:55:27;95008.78;;;18.34;75.45
8501;BME280;4288;48.484;10.024;2023-05-10T01:58:01;95011.94;;;18.33;75.59
8501;BME280;4288;48.484;10.024;2023-05-10T02:00:30;95007.28;;;18.33;75.75
8501;BME280;4288;48.484;10.024;2023-05-10T02:03:01;95004.59;;;18.33;75.16
8501;BME280;4288;48.484;10.024;2023-05-10T02:05:32;95016.59;;;18.32;76.03
8501;BME280;4288;48.484;10.024;2023-05-10T02:08:01;95022.78;;;18.33;75.67
8501;BME280;4288;48.484;10.024;2023-05-10T02:10:30;95020.06;;;18.33;75.54
8501;BME280;4288;48.484;10.024;2023-05-10T02:12:59;95021.25;;;18.32;76.38
8501;BME280;4288;48.484;10.024;2023-05-10T02:15:29;95032.06;;;18.32;76.04
8501;BME280;4288;48.484;10.024;2023-05-10T02:17:59;95021.25;;;18.32;75.65
8501;BME280;4288;48.484;10.024;2023-05-10T02:20:27;95026.66;;;18.32;75.47
8501;BME280;4288;48.484;10.024;2023-05-10T02:22:57;95029.34;;;18.32;76.09
8501;BME280;4288;48.484;10.024;2023-05-10T02:25:26;95028.63;;;18.31;76.16
8501;BME280;4288;48.484;10.024;2023-05-10T02:27:56;95037.47;;;18.32;76.18
8501;BME280;4288;48.484;10.024;2023-05-10T02:30:25;95044.09;;;18.31;75.56
8501;BME280;4288;48.484;10.024;2023-05-10T02:32:53;95046.81;;;18.31;75.95
8501;BME280;4288;48.484;10.024;2023-05-10T02:35:23;95052.97;;;18.31;75.45
8501;BME280;4288;48.484;10.024;2023-05-10T02:37:52;95057.63;;;18.31;76.04
8501;BME280;4288;48.484;10.024;2023-05-10T02:40:22;95045.28;;;18.30;76.04
8501;BME280;4288;48.484;10.024;2023-05-10T02:42:52;95050.69;;;18.30;75.90
8501;BME280;4288;48.484;10.024;2023-05-10T02:45:25;95050.69;;;18.30;75.88
8501;BME280;4288;48.484;10.024;2023-05-10T02:47:55;95052.66;;;18.29;75.75
8501;BME280;4288;48.484;10.024;2023-05-10T02:50:26;95058.50;;;18.28;75.59
8501;BME280;4288;48.484;10.024;2023-05-10T02:52:59;95057.31;;;18.29;76.30
8501;BME280;4288;48.484;10.024;2023-05-10T02:55:31;95051.59;;;18.27;76.18
8501;BME280;4288;48.484;10.024;2023-05-10T02:58:01;95058.50;;;18.28;75.62
8501;BME280;4288;48.484;10.024;2023-05-10T03:00:29;95063.59;;;18.26;75.92
8501;BME280;4288;48.484;10.024;2023-05-10T03:02:56;95059.69;;;18.27;75.52
8501;BME280;4288;48.484;10.024;2023-05-10T03:05:25;95059.69;;;18.27;75.74
8501;BME280;4288;48.484;10.024;2023-05-10T03:07:53;95067.06;;;18.26;76.04
8501;BME280;4288;48.484;10.024;2023-05-10T03:10:22;95067.06;;;18.26;75.92
8501;BME280;4288;48.484;10.024;2023-05-10T03:13:01;95069.00;;;18.26;75.89
8501;BME280;4288;48.484;10.024;2023-05-10T03:15:37;95070.97;;;18.25;76.04
8501;BME280;4288;48.484;10.024;2023-05-10T03:18:12;95071.69;;;18.26;75.38
8501;BME280;4288;48.484;10.024;2023-05-10T03:20:47;95076.38;;;18.25;75.59
8501;BME280;4288;48.484;10.024;2023-05-10T03:23:22;95076.38;;;18.25;75.72
8501;BME280;4288;48.484;10.024;2023-05-10T03:25:53;95068.69;;;18.24;76.02
8501;BME280;4288;48.484;10.024;2023-05-10T03:28:21;95078.75;;;18.23;75.77
8501;BME280;4288;48.484;10.024;2023-05-10T03:30:53;95083.41;;;18.23;75.78
8501;BME280;4288;48.484;10.024;2023-05-10T03:33:21;95086.88;;;18.23;75.82
8501;BME280;4288;48.484;10.024;2023-05-10T03:35:49;95098.13;;;18.22;75.72
8501;BME280;4288;48.484;10.024;2023-05-10T03:38:17;95090.00;;;18.22;75.41
8501;BME280;4288;48.484;10.024;2023-05-10T03:40:44;95087.28;;;18.22;75.88
8501;BME280;4288;48.484;10.024;2023-05-10T03:43:12;95098.13;;;18.22;75.68
8501;BME280;4288;48.484;10.024;2023-05-10T03:45:39;95092.38;;;18.20;75.41
8501;BME280;4288;48.484;10.024;2023-05-10T03:48:06;95095.84;;;18.20;75.58
8501;BME280;4288;48.484;10.024;2023-05-10T03:50:34;95099.31;;;18.21;75.53
8501;BME280;4288;48.484;10.024;2023-05-10T03:53:02;95093.16;;;18.20;75.45
8501;BME280;4288;48.484;10.024;2023-05-10T03:55:30;95095.09;;;18.20;75.14
8501;BME280;4288;48.484;10.024;2023-05-10T03:58:00;95097.06;;;18.19;75.44
8501;BME280;4288;48.484;10.024;2023-05-10T04:00:27;95098.25;;;18.18;75.65
8501;BME280;4288;48.484;10.024;2023-05-10T04:02:55;95089.41;;;18.18;75.45
8501;BME280;4288;48.484;10.024;2023-05-10T04:05:22;95097.50;;;18.18;75.34
8501;BME280;4288;48.484;10.024;2023-05-10T04:07:49;95092.50;;;18.16;75.10
8501;BME280;4288;48.484;10.024;2023-05-10T04:10:18;95092.84;;;18.18;75.35
8501;BME280;4288;48.484;10.024;2023-05-10T04:12:47;95096.75;;;18.17;75.26
8501;BME280;4288;48.484;10.024;2023-05-10T04:15:14;95095.97;;;18.17;75.30
8501;BME280;4288;48.484;10.024;2023-05-10T04:17:42;95106.03;;;18.16;75.10
8501;BME280;4288;48.484;10.024;2023-05-10T04:20:10;95104.09;;;18.17;75.13
8501;BME280;4288;48.484;10.024;2023-05-10T04:22:37;95108.75;;;18.16;75.16
8501;BME280;4288;48.484;10.024;2023-05-10T04:25:06;95110.72;;;18.16;75.24
8501;BME280;4288;48.484;10.024;2023-05-10T04:27:35;95110.72;;;18.16;75.61
8501;BME280;4288;48.484;10.024;2023-05-10T04:30:03;95108.44;;;18.14;75.36
8501;BME280;4288;48.484;10.024;2023-05-10T04:32:30;95108.44;;;18.14;75.06
8501;BME280;4288;48.484;10.024;2023-05-10T04:34:58;95113.09;;;18.14;74.95
8501;BME280;4288;48.484;10.024;2023-05-10T04:37:25;95115.81;;;18.14;75.52
8501;BME280;4288;48.484;10.024;2023-05-10T04:39:53;95117.75;;;18.13;75.37
8501;BME280;4288;48.484;10.024;2023-05-10T04:42:20;95119.69;;;18.13;75.27
8501;BME280;4288;48.484;10.024;2023-05-10T04:44:49;95126.63;;;18.14;75.23
8501;BME280;4288;48.484;10.024;2023-05-10T04:47:17;95133.22;;;18.13;74.71
8501;BME280;4288;48.484;10.024;2023-05-10T04:49:45;95129.75;;;18.12;75.65
8501;BME280;4288;48.484;10.024;2023-05-10T04:52:12;95136.34;;;18.11;75.11
8501;BME280;4288;48.484;10.024;2023-05-10T04:54:41;95141.31;;;18.13;75.32
8501;BME280;4288;48.484;10.024;2023-05-10T04:57:08;95139.06;;;18.11;75.05
8501;BME280;4288;48.484;10.024;2023-05-10T04:59:36;95143.28;;;18.12;75.12
8501;BME280;4288;48.484;10.024;2023-05-10T05:02:05;95140.56;;;18.12;74.85
8501;BME280;4288;48.484;10.024;2023-05-10T05:04:32;95142.53;;;18.12;75.18
8501;BME280;4288;48.484;10.024;2023-05-10T05:07:00;95143.72;;;18.11;75.00
8501;BME280;4288;48.484;10.024;2023-05-10T05:09:27;95141.78;;;18.11;74.77
8501;BME280;4288;48.484;10.024;2023-05-10T05:11:54;95139.84;;;18.12;75.20
8501;BME280;4288;48.484;10.024;2023-05-10T05:14:22;95147.19;;;18.11;74.86
8501;BME280;4288;48.484;10.024;2023-05-10T05:16:51;95146.41;;;18.11;74.80
8501;BME280;4288;48.484;10.024;2023-05-10T05:19:19;95149.13;;;18.11;74.91
8501;BME280;4288;48.484;10.024;2023-05-10T05:21:47;95146.84;;;18.09;74.87
8501;BME280;4288;48.484;10.024;2023-05-10T05:24:14;95153.78;;;18.10;74.73
8501;BME280;4288;48.484;10.024;2023-05-10T05:26:42;95155.75;;;18.10;75.10
8501;BME280;4288;48.484;10.024;2023-05-10T05:29:09;95144.16;;;18.09;75.03
8501;BME280;4288;48.484;10.024;2023-05-10T05:31:36;95147.63;;;18.10;74.71
8501;BME280;4288;48.484;10.024;2023-05-10T05:34:04;95150.34;;;18.10;74.73
8501;BME280;4288;48.484;10.024;2023-05-10T05:36:35;95155.75;;;18.10;74.47
8501;BME280;4288;48.484;10.024;2023-05-10T05:39:04;95150.34;;;18.10;74.66
8501;BME280;4288;48.484;10.024;2023-05-10T05:41:31;95152.28;;;18.09;74.39
8501;BME280;4288;48.484;10.024;2023-05-10T05:43:58;95146.09;;;18.09;74.94
8501;BME280;4288;48.484;10.024;2023-05-10T05:46:26;95147.31;;;18.08;74.38
8501;BME280;4288;48.484;10.024;2023-05-10T05:48:53;95142.94;;;18.10;74.67
8501;BME280;4288;48.484;10.024;2023-05-10T05:51:20;95147.44;;;17.92;75.04
8501;BME280;4288;48.484;10.024;2023-05-10T05:53:49;95146.16;;;17.84;75.12
8501;BME280;4288;48.484;10.024;2023-05-10T05:56:16;95153.94;;;17.94;74.90
8501;BME280;4288;48.484;10.024;2023-05-10T05:58:50;95162.56;;;18.02;74.43
8501;BME280;4288;48.484;10.024;2023-05-10T06:01:17;95160.91;;;18.04;74.81
8501;BME280;4288;48.484;10.024;2023-05-10T06:03:44;95170.13;;;18.07;74.60
8501;BME280;4288;48.484;10.024;2023-05-10T06:06:12;95170.44;;;18.09;74.93
8501;BME280;4288;48.484;10.024;2023-05-10T06:08:39;95175.41;;;18.10;74.12
8501;BME280;4288;48.484;10.024;2023-05-10T06:11:08;95175.00;;;18.12;73.95
8501;BME280;4288;48.484;10.024;2023-05-10T06:13:35;95178.03;;;18.14;73.96
8501;BME280;4288;48.484;10.024;2023-05-10T06:16:03;95176.03;;;18.14;73.98
8501;BME280;4288;48.484;10.024;2023-05-10T06:18:30;95189.91;;;18.16;73.80
8501;BME280;4288;48.484;10.024;2023-05-10T06:20:58;95187.94;;;18.17;73.83
8501;BME280;4288;48.484;10.024;2023-05-10T06:23:25;95190.22;;;18.18;75.12
8501;BME280;4288;48.484;10.024;2023-05-10T06:25:53;95192.19;;;18.18;74.49
8501;BME280;4288;48.484;10.024;2023-05-10T06:28:22;95193.69;;;18.19;74.24
8501;BME280;4288;48.484;10.024;2023-05-10T06:30:49;95203.28;;;18.20;73.56
8501;BME280;4288;48.484;10.024;2023-05-10T06:33:17;95197.88;;;18.20;74.21
8501;BME280;4288;48.484;10.024;2023-05-10T06:35:44;95201.34;;;18.20;74.98
8501;BME280;4288;48.484;10.024;2023-05-10T06:38:11;95207.97;;;18.19;74.23
8501;BME280;4288;48.484;10.024;2023-05-10T06:40:41;95204.50;;;18.19;74.10
8501;BME280;4288;48.484;10.024;2023-05-10T06:43:09;95208.41;;;18.18;73.97
8501;BME280;4288;48.484;10.024;2023-05-10T06:45:38;95207.66;;;18.17;73.90
8501;BME280;4288;48.484;10.024;2023-05-10T06:48:05;95200.31;;;18.18;73.93
8501;BME280;4288;48.484;10.024;2023-05-10T06:50:32;95202.25;;;18.17;73.44
8501;BME280;4288;48.484;10.024;2023-05-10T06:53:00;95208.41;;;18.18;73.71
8501;BME280;4288;48.484;10.024;2023-05-10T06:55:28;95208.41;;;18.18;73.92
8501;BME280;4288;48.484;10.024;2023-05-10T06:57:56;95209.16;;;18.18;73.97
8501;BME280;4288;48.484;10.024;2023-05-10T07:00:23;95207.66;;;18.17;73.68
8501;BME280;4288;48.484;10.024;2023-05-10T07:02:52;95217.25;;;18.18;73.63
8501;BME280;4288;48.484;10.024;2023-05-10T07:05:20;95219.22;;;18.18;74.12
8501;BME280;4288;48.484;10.024;2023-05-10T07:07:47;95224.66;;;18.18;73.22
8501;BME280;4288;48.484;10.024;2023-05-10T07:10:15;95211.84;;;18.18;73.95
8501;BME280;4288;48.484;10.024;2023-05-10T07:12:42;95219.97;;;18.18;73.96
8501;BME280;4288;48.484;10.024;2023-05-10T07:15:10;95219.66;;;18.16;74.99
8501;BME280;4288;48.484;10.024;2023-05-10T07:17:37;95221.28;;;18.14;74.91
8501;BME280;4288;48.484;10.024;2023-05-10T07:20:07;95223.56;;;18.15;73.81
8501;BME280;4288;48.484;10.024;2023-05-10T07:22:35;95220.84;;;18.15;73.39
8501;BME280;4288;48.484;10.024;2023-05-10T07:25:02;95232.44;;;18.16;73.74
8501;BME280;4288;48.484;10.024;2023-05-10T07:27:31;95227.03;;;18.16;73.49
8501;BME280;4288;48.484;10.024;2023-05-10T07:29:58;95219.66;;;18.16;73.64
8501;BME280;4288;48.484;10.024;2023-05-10T07:32:26;95225.06;;;18.16;73.20
8501;BME280;4288;48.484;10.024;2023-05-10T07:34:53;95217.72;;;18.17;73.58
8501;BME280;4288;48.484;10.024;2023-05-10T07:37:22;95223.13;;;18.17;73.28
8501;BME280;4288;48.484;10.024;2023-05-10T07:39:50;95225.81;;;18.17;73.86
8501;BME280;4288;48.484;10.024;2023-05-10T07:42:17;95232.00;;;18.17;73.52
8501;BME280;4288;48.484;10.024;2023-05-10T07:44:44;95225.81;;;18.17;73.54
8501;BME280;4288;48.484;10.024;2023-05-10T07:47:12;95227.03;;;18.16;73.42
8501;BME280;4288;48.484;10.024;2023-05-10T07:49:39;95227.03;;;18.16;73.29
8501;BME280;4288;48.484;10.024;2023-05-10T07:52:07;95227.03;;;18.16;73.29
8501;BME280;4288;48.484;10.024;2023-05-10T07:54:36;95220.84;;;18.15;73.53
8501;BME280;4288;48.484;10.024;2023-05-10T07:57:04;95231.22;;;18.17;73.37
8501;BME280;4288;48.484;10.024;2023-05-10T07:59:31;95223.56;;;18.15;72.97
8501;BME280;4288;48.484;10.024;2023-05-10T08:01:59;95227.03;;;18.16;73.19
8501;BME280;4288;48.484;10.024;2023-05-10T08:04:26;95230.47;;;18.16;73.25
8501;BME280;4288;48.484;10.024;2023-05-10T08:06:54;95228.97;;;18.15;72.75
8501;BME280;4288;48.484;10.024;2023-05-10T08:09:21;95229.72;;;18.16;73.21
8501;BME280;4288;48.484;10.024;2023-05-10T08:11:51;95237.09;;;18.15;73.03
8501;BME280;4288;48.484;10.024;2023-05-10T08:14:18;95237.09;;;18.15;73.20
8501;BME280;4288;48.484;10.024;2023-05-10T08:16:46;95232.44;;;18.16;73.11
8501;BME280;4288;48.484;10.024;2023-05-10T08:19:13;95233.94;;;18.17;73.24
8501;BME280;4288;48.484;10.024;2023-05-10T08:21:44;95239.03;;;18.15;72.77
8501;BME280;4288;48.484;10.024;2023-05-10T08:24:12;95236.31;;;18.15;73.17
8501;BME280;4288;48.484;10.024;2023-05-10T08:26:39;95230.47;;;18.16;73.08
8501;BME280;4288;48.484;10.024;2023-05-10T08:29:08;95239.03;;;18.15;73.32
8501;BME280;4288;48.484;10.024;2023-05-10T08:31:36;95234.38;;;18.15;73.15
8501;BME280;4288;48.484;10.024;2023-05-10T08:34:03;95240.56;;;18.16;73.37
8501;BME280;4288;48.484;10.024;2023-05-10T08:36:30;95245.97;;;18.16;73.14
8501;BME280;4288;48.484;10.024;2023-05-10T08:38:58;95244.75;;;18.17;73.13
8501;BME280;4288;48.484;10.024;2023-05-10T08:41:26;95246.28;;;18.18;73.04
8501;BME280;4288;48.484;10.024;2023-05-10T08:43:54;95243.59;;;18.18;73.34
8501;BME280;4288;48.484;10.024;2023-05-10T08:46:23;95243.59;;;18.18;73.41
8501;BME280;4288;48.484;10.024;2023-05-10T08:48:51;95244.31;;;18.18;73.13
8501;BME280;4288;48.484;10.024;2023-05-10T08:51:24;95250.81;;;18.21;73.34
8501;BME280;4288;48.484;10.024;2023-05-10T08:53:53;95246.91;;;18.22;73.52
8501;BME280;4288;48.484;10.024;2023-05-10T08:56:20;95250.38;;;18.22;74.06
8501;BME280;4288;48.484;10.024;2023-05-10T08:58:48;95257.31;;;18.23;73.92
8501;BME280;4288;48.484;10.024;2023-05-10T09:01:17;95259.69;;;18.21;73.82
8501;BME280;4288;48.484;10.024;2023-05-10T09:03:46;95257.00;;;18.21;74.16
8501;BME280;4288;48.484;10.024;2023-05-10T09:06:14;95261.19;;;18.22;74.13
8501;BME280;4288;48.484;10.024;2023-05-10T09:08:42;95259.69;;;18.21;73.58
8501;BME280;4288;48.484;10.024;2023-05-10T09:11:11;95266.59;;;18.22;74.06
8501;BME280;4288;48.484;10.024;2023-05-10T09:13:39;95267.38;;;18.23;74.11
8501;BME280;4288;48.484;10.024;2023-05-10T09:16:07;95269.31;;;18.22;75.17
8501;BME280;4288;48.484;10.024;2023-05-10T09:18:34;95268.53;;;18.22;74.80
8501;BME280;4288;48.484;10.024;2023-05-10T09:21:03;95271.25;;;18.22;74.95
8501;BME280;4288;48.484;10.024;2023-05-10T09:23:31;95267.38;;;18.23;75.23
8501;BME280;4288;48.484;10.024;2023-05-10T09:26:04;95272.78;;;18.23;75.26
8501;BME280;4288;48.484;10.024;2023-05-10T09:28:32;95264.22;;;18.24;75.35
8501;BME280;4288;48.484;10.024;2023-05-10T09:31:00;95266.16;;;18.24;74.73
8501;BME280;4288;48.484;10.024;2023-05-10T09:33:28;95263.47;;;18.24;74.55
8501;BME280;4288;48.484;10.024;2023-05-10T09:36:05;95263.47;;;18.24;75.29
8501;BME280;4288;48.484;10.024;2023-05-10T09:38:45;95260.75;;;18.24;75.23
8501;BME280;4288;48.484;10.024;2023-05-10T09:41:17;95263.47;;;18.24;75.44
8501;BME280;4288;48.484;10.024;2023-05-10T09:43:45;95265.00;;;18.25;75.59
8501;BME280;4288;48.484;10.024;2023-05-10T09:46:12;95269.63;;;18.24;74.57
8501;BME280;4288;48.484;10.024;2023-05-10T09:48:42;95263.47;;;18.24;75.61
8501;BME280;4288;48.484;10.024;2023-05-10T09:51:15;95261.53;;;18.24;75.28
8501;BME280;4288;48.484;10.024;2023-05-10T09:53:46;95264.66;;;18.23;75.28
8501;BME280;4288;48.484;10.024;2023-05-10T09:56:33;95259.25;;;18.23;75.19
8501;BME280;4288;48.484;10.024;2023-05-10T09:59:04;95258.50;;;18.22;75.24
8501;BME280;4288;48.484;10.024;2023-05-10T10:01:32;95254.28;;;18.21;75.01
8501;BME280;4288;48.484;10.024;2023-05-10T10:03:59;95261.63;;;18.21;75.26
8501;BME280;4288;48.484;10.024;2023-05-10T10:06:34;95258.50;;;18.22;76.24
8501;BME280;4288;48.484;10.024;2023-05-10T10:09:03;95259.03;;;18.17;76.47
8501;BME280;4288;48.484;10.024;2023-05-10T10:11:31;95263.56;;;18.20;75.68
8501;BME280;4288;48.484;10.024;2023-05-10T10:13:58;95265.84;;;18.22;76.18
